createdAt,value
2022-09-26T00:00:24.358Z,5.83
2022-09-26T00:02:51.487Z,5.77
2022-09-26T00:05:18.610Z,5.77
2022-09-26T00:07:45.721Z,6.13
2022-09-26T00:10:12.874Z,6.37
2022-09-26T00:12:40.035Z,6.20
2022-09-26T00:15:07.491Z,5.47
2022-09-26T00:17:34.578Z,6.37
2022-09-26T00:20:01.809Z,5.73
2022-09-26T00:22:29.303Z,5.53
2022-09-26T00:24:56.389Z,5.43
2022-09-26T00:27:24.043Z,6.30
2022-09-26T00:29:51.123Z,7.47
2022-09-26T00:32:18.230Z,6.20
2022-09-26T00:34:45.346Z,6.70
2022-09-26T00:37:12.459Z,7.37
2022-09-26T00:39:39.592Z,6.87
2022-09-26T00:42:06.779Z,6.73
2022-09-26T00:44:45.966Z,5.90
2022-09-26T00:47:22.279Z,6.27
2022-09-26T00:49:50.335Z,6.33
2022-09-26T00:52:27.510Z,7.00
2022-09-26T00:54:56.086Z,5.87
2022-09-26T00:57:27.327Z,5.90
2022-09-26T00:59:57.715Z,6.13
2022-09-26T01:02:26.055Z,6.43
2022-09-26T01:04:53.995Z,6.10
2022-09-26T01:07:22.850Z,5.67
2022-09-26T01:09:49.967Z,6.20
2022-09-26T01:12:17.580Z,6.73
2022-09-26T01:14:45.547Z,6.67
2022-09-26T01:17:12.769Z,6.13
2022-09-26T01:19:47.304Z,7.80
2022-09-26T01:22:28.125Z,7.50
2022-09-26T01:24:55.180Z,6.97
2022-09-26T01:27:40.908Z,7.93
2022-09-26T01:30:15.999Z,8.07
2022-09-26T01:33:01.917Z,7.53
2022-09-26T01:35:39.907Z,7.43
2022-09-26T01:38:26.600Z,6.90
2022-09-26T01:40:53.737Z,6.73
2022-09-26T01:43:23.813Z,7.53
2022-09-26T01:45:53.601Z,5.73
2022-09-26T01:48:25.121Z,6.80
2022-09-26T01:50:58.104Z,7.40
2022-09-26T01:53:30.946Z,7.07
2022-09-26T01:56:04.141Z,6.33
2022-09-26T01:58:31.170Z,5.20
2022-09-26T02:01:00.649Z,6.77
2022-09-26T02:03:31.009Z,7.47
2022-09-26T02:06:04.641Z,8.10
2022-09-26T02:08:34.699Z,6.43
2022-09-26T02:11:20.424Z,5.63
2022-09-26T02:13:53.159Z,5.80
2022-09-26T02:16:23.009Z,7.27
2022-09-26T02:18:55.352Z,8.00
2022-09-26T02:21:24.100Z,6.40
2022-09-26T02:23:52.503Z,5.17
2022-09-26T02:26:19.854Z,5.27
2022-09-26T02:28:47.457Z,6.57
2022-09-26T02:31:20.465Z,5.93
2022-09-26T02:33:49.361Z,5.83
2022-09-26T02:36:17.660Z,6.20
2022-09-26T02:38:44.757Z,6.23
2022-09-26T02:41:30.908Z,6.27
2022-09-26T02:44:23.698Z,7.10
2022-09-26T02:46:59.849Z,6.47
2022-09-26T02:49:45.370Z,5.73
2022-09-26T02:52:29.702Z,4.07
2022-09-26T02:55:15.827Z,8.70
2022-09-26T02:58:04.027Z,8.27
2022-09-26T03:00:40.327Z,7.03
2022-09-26T03:03:10.568Z,6.03
2022-09-26T03:05:38.716Z,6.30
2022-09-26T03:08:08.980Z,6.47
2022-09-26T03:10:36.982Z,7.20
2022-09-26T03:13:07.270Z,6.33
2022-09-26T03:15:35.326Z,5.20
2022-09-26T03:18:04.354Z,3.93
2022-09-26T03:20:31.521Z,5.57
2022-09-26T03:22:58.601Z,5.43
2022-09-26T03:25:26.840Z,6.57
2022-09-26T03:27:54.676Z,5.40
2022-09-26T03:30:22.642Z,7.47
2022-09-26T03:32:50.082Z,6.27
2022-09-26T03:35:17.702Z,6.80
2022-09-26T03:37:44.851Z,6.40
2022-09-26T03:40:13.011Z,4.90
2022-09-26T03:42:40.620Z,6.17
2022-09-26T03:45:10.364Z,6.23
2022-09-26T03:47:41.981Z,5.87
2022-09-26T03:50:09.533Z,7.07
2022-09-26T03:52:36.654Z,5.37
2022-09-26T03:55:04.646Z,6.20
2022-09-26T03:57:31.855Z,5.97
2022-09-26T03:59:58.989Z,6.13
2022-09-26T04:02:26.312Z,4.80
2022-09-26T04:04:53.456Z,6.20
2022-09-26T04:07:20.559Z,7.27
2022-09-26T04:09:47.623Z,8.63
2022-09-26T04:12:15.157Z,8.07
2022-09-26T04:14:45.252Z,8.20
2022-09-26T04:17:12.778Z,7.00
2022-09-26T04:19:40.476Z,5.43
2022-09-26T04:22:10.372Z,7.57
2022-09-26T04:24:37.702Z,7.13
2022-09-26T04:27:05.762Z,5.77
2022-09-26T04:29:32.836Z,6.00
2022-09-26T04:31:59.954Z,6.57
2022-09-26T04:34:27.681Z,6.13
2022-09-26T04:36:54.926Z,6.63
2022-09-26T04:39:23.128Z,7.53
2022-09-26T04:41:50.217Z,6.27
2022-09-26T04:44:17.443Z,7.55
2022-09-26T04:46:44.521Z,7.83
2022-09-26T04:49:11.780Z,7.03
2022-09-26T04:51:38.901Z,8.43
2022-09-26T04:54:06.067Z,9.13
2022-09-26T04:56:33.194Z,6.13
2022-09-26T04:59:00.617Z,5.90
2022-09-26T05:01:28.219Z,6.53
2022-09-26T05:03:56.949Z,7.80
2022-09-26T05:06:24.095Z,7.47
2022-09-26T05:08:51.183Z,8.33
2022-09-26T05:11:21.399Z,8.53
2022-09-26T05:13:53.659Z,6.77
2022-09-26T05:16:21.250Z,10.50
2022-09-26T05:18:52.322Z,7.83
2022-09-26T05:21:19.587Z,7.23
2022-09-26T05:24:05.293Z,8.13
2022-09-26T05:26:35.881Z,8.57
2022-09-26T05:29:08.478Z,7.97
2022-09-26T05:31:37.784Z,7.60
2022-09-26T05:34:05.779Z,10.83
2022-09-26T05:36:32.935Z,7.63
2022-09-26T05:39:00.540Z,8.03
2022-09-26T05:41:34.075Z,8.48
2022-09-26T05:44:01.253Z,8.03
2022-09-26T05:46:28.457Z,11.40
2022-09-26T05:48:57.170Z,8.30
2022-09-26T05:51:24.325Z,9.57
2022-09-26T05:53:51.570Z,10.10
2022-09-26T05:56:19.735Z,9.07
2022-09-26T05:58:48.034Z,8.20
2022-09-26T06:01:16.227Z,9.83
2022-09-26T06:03:44.128Z,10.17
2022-09-26T06:06:18.966Z,9.77
2022-09-26T06:08:46.288Z,10.23
2022-09-26T06:11:15.037Z,8.47
2022-09-26T06:13:45.556Z,8.87
2022-09-26T06:16:18.209Z,9.27
2022-09-26T06:18:46.955Z,9.43
2022-09-26T06:21:15.231Z,11.07
2022-09-26T06:23:42.657Z,7.73
2022-09-26T06:26:12.256Z,6.70
2022-09-26T06:28:40.146Z,9.57
2022-09-26T06:31:11.212Z,10.53
2022-09-26T06:33:38.352Z,9.93
2022-09-26T06:36:06.998Z,10.30
2022-09-26T06:38:34.730Z,9.53
2022-09-26T06:41:02.215Z,7.77
2022-09-26T06:43:29.538Z,9.43
2022-09-26T06:45:56.658Z,9.70
2022-09-26T06:48:25.613Z,9.83
2022-09-26T06:50:54.105Z,8.87
2022-09-26T06:53:21.543Z,10.07
2022-09-26T06:55:48.697Z,8.87
2022-09-26T06:58:15.805Z,10.23
2022-09-26T07:00:43.700Z,9.17
2022-09-26T07:03:11.959Z,7.93
2022-09-26T07:05:39.826Z,8.83
2022-09-26T07:08:07.054Z,8.43
2022-09-26T07:10:35.168Z,8.93
2022-09-26T07:13:04.019Z,8.50
2022-09-26T07:15:33.013Z,9.87
2022-09-26T07:18:03.804Z,9.47
2022-09-26T07:20:32.712Z,11.33
2022-09-26T07:23:03.368Z,10.03
2022-09-26T07:25:32.011Z,10.40
2022-09-26T07:27:59.324Z,11.27
2022-09-26T07:30:26.442Z,7.63
2022-09-26T07:32:53.519Z,9.90
2022-09-26T07:35:20.814Z,9.97
2022-09-26T07:37:52.822Z,11.33
2022-09-26T07:40:21.127Z,9.40
2022-09-26T07:43:09.333Z,10.07
2022-09-26T07:45:54.023Z,8.70
2022-09-26T07:48:40.058Z,8.40
2022-09-26T07:51:09.466Z,8.43
2022-09-26T07:53:38.673Z,7.97
2022-09-26T07:56:05.895Z,11.47
2022-09-26T07:58:33.828Z,8.17
2022-09-26T08:01:00.934Z,7.67
2022-09-26T08:03:29.477Z,8.93
2022-09-26T08:05:57.220Z,8.07
2022-09-26T08:08:24.296Z,8.10
2022-09-26T08:10:51.625Z,7.63
2022-09-26T08:13:20.956Z,8.27
2022-09-26T08:15:48.088Z,9.73
2022-09-26T08:18:15.172Z,7.33
2022-09-26T08:20:46.695Z,9.50
2022-09-26T08:23:17.740Z,7.20
2022-09-26T08:25:45.275Z,6.50
2022-09-26T08:28:12.937Z,7.73
2022-09-26T08:30:40.966Z,7.37
2022-09-26T08:33:08.772Z,7.53
2022-09-26T08:35:38.688Z,7.83
2022-09-26T08:38:09.279Z,6.43
2022-09-26T08:40:56.735Z,5.77
2022-09-26T08:43:31.167Z,6.03
2022-09-26T08:46:39.376Z,6.70
2022-09-26T08:49:14.606Z,7.47
2022-09-26T08:51:43.606Z,6.50
2022-09-26T08:54:12.865Z,8.07
2022-09-26T08:56:42.010Z,5.00
2022-09-26T08:59:13.431Z,5.00
2022-09-26T09:01:42.483Z,7.73
2022-09-26T09:04:18.061Z,7.50
2022-09-26T09:06:45.300Z,4.77
2022-09-26T09:09:15.340Z,5.97
2022-09-26T09:11:51.633Z,5.03
2022-09-26T09:14:27.355Z,5.73
2022-09-26T09:16:54.467Z,6.57
2022-09-26T09:19:24.529Z,5.60
2022-09-26T09:21:51.613Z,6.57
2022-09-26T09:24:24.755Z,8.20
2022-09-26T09:30:10.372Z,5.73
2022-09-26T09:32:47.165Z,5.27
2022-09-26T09:35:19.698Z,8.17
2022-09-26T09:37:51.704Z,7.97
2022-09-26T09:40:26.556Z,7.30
2022-09-26T09:42:58.297Z,10.57
2022-09-26T09:45:30.948Z,7.00
2022-09-26T09:47:58.177Z,11.87
2022-09-26T09:50:43.345Z,8.53
2022-09-26T09:53:28.959Z,8.10
2022-09-26T09:55:59.323Z,10.07
2022-09-26T09:58:26.402Z,10.43
2022-09-26T10:01:09.793Z,9.17
2022-09-26T10:03:37.766Z,6.67
2022-09-26T10:06:05.589Z,10.80
2022-09-26T10:08:34.580Z,6.67
2022-09-26T10:11:13.412Z,11.67
2022-09-26T10:13:43.091Z,8.73
2022-09-26T10:16:15.314Z,8.80
2022-09-26T10:18:59.391Z,8.70
2022-09-26T10:21:34.419Z,6.80
2022-09-26T10:24:03.753Z,6.60
2022-09-26T10:26:35.201Z,8.57
2022-09-26T10:29:34.260Z,6.93
2022-09-26T10:32:01.829Z,6.67
2022-09-26T10:34:30.096Z,6.40
2022-09-26T10:36:57.720Z,5.60
2022-09-26T10:39:44.567Z,6.97
2022-09-26T10:42:15.491Z,9.67
2022-09-26T10:44:43.153Z,7.30
2022-09-26T10:47:14.791Z,5.20
2022-09-26T10:49:51.349Z,6.03
2022-09-26T10:52:24.692Z,7.47
2022-09-26T10:54:59.705Z,6.03
2022-09-26T10:57:30.711Z,7.13
2022-09-26T10:59:59.479Z,5.40
2022-09-26T11:02:27.930Z,5.87
2022-09-26T11:05:16.287Z,5.80
2022-09-26T11:07:44.671Z,7.20
2022-09-26T11:10:17.056Z,5.30
2022-09-26T11:13:05.060Z,5.17
2022-09-26T11:15:32.249Z,3.90
2022-09-26T11:17:59.475Z,5.60
2022-09-26T11:20:36.151Z,4.87
2022-09-26T11:23:07.792Z,2.67
2022-09-26T11:25:45.352Z,2.17
2022-09-26T11:28:15.432Z,4.37
2022-09-26T11:30:48.187Z,4.17
2022-09-26T11:33:18.763Z,3.27
2022-09-26T11:35:49.823Z,7.37
2022-09-26T11:38:29.138Z,6.93
2022-09-26T11:41:07.424Z,4.23
2022-09-26T11:43:53.142Z,5.37
2022-09-26T11:46:27.231Z,5.60
2022-09-26T11:49:00.925Z,3.00
2022-09-26T11:51:42.450Z,5.30
2022-09-26T11:54:15.819Z,4.77
2022-09-26T11:56:55.199Z,3.63
2022-09-26T11:59:41.859Z,6.67
2022-09-26T12:02:17.939Z,4.00
2022-09-26T12:04:45.326Z,4.20
2022-09-26T12:07:38.831Z,4.03
2022-09-26T12:10:05.931Z,5.50
2022-09-26T12:13:08.334Z,5.57
2022-09-26T12:15:38.738Z,4.43
2022-09-26T12:18:24.691Z,4.80
2022-09-26T12:21:10.537Z,7.17
2022-09-26T12:23:37.843Z,4.87
2022-09-26T12:26:10.731Z,7.70
2022-09-26T12:28:41.196Z,6.50
2022-09-26T12:31:27.551Z,5.80
2022-09-26T12:34:13.716Z,5.13
2022-09-26T12:36:47.983Z,6.20
2022-09-26T12:39:32.929Z,5.93
2022-09-26T12:42:00.146Z,5.50
2022-09-26T12:44:28.429Z,7.57
2022-09-26T12:47:02.087Z,7.30
2022-09-26T12:49:29.482Z,7.10
2022-09-26T12:52:00.150Z,6.03
2022-09-26T12:54:40.299Z,4.47
2022-09-26T12:57:07.626Z,6.27
2022-09-26T12:59:47.258Z,7.90
2022-09-26T13:02:17.165Z,8.07
2022-09-26T13:04:44.356Z,7.87
2022-09-26T13:07:31.687Z,7.67
2022-09-26T13:10:17.452Z,8.93
2022-09-26T13:12:47.696Z,8.47
2022-09-26T13:15:22.367Z,8.80
2022-09-26T13:17:54.555Z,6.20
2022-09-26T13:20:28.921Z,6.80
2022-09-26T13:23:14.635Z,7.37
2022-09-26T13:25:49.525Z,9.23
2022-09-26T13:28:20.276Z,8.37
2022-09-26T13:30:50.086Z,9.00
2022-09-26T13:33:27.597Z,6.70
2022-09-26T13:35:56.308Z,9.53
2022-09-26T13:38:41.945Z,11.77
2022-09-26T13:41:25.284Z,8.43
2022-09-26T13:44:07.615Z,7.27
2022-09-26T13:46:40.390Z,9.00
2022-09-26T13:49:07.583Z,8.80
2022-09-26T13:51:42.757Z,11.13
2022-09-26T13:54:30.541Z,7.10
2022-09-26T13:56:57.623Z,8.80
2022-09-26T13:59:27.139Z,9.23
2022-09-26T14:02:12.828Z,7.03
2022-09-26T14:04:40.095Z,9.10
2022-09-26T14:07:27.127Z,9.23
2022-09-26T14:10:03.536Z,6.27
2022-09-26T14:12:49.544Z,8.30
2022-09-26T14:15:19.081Z,5.47
2022-09-26T14:17:46.314Z,6.37
2022-09-26T14:20:16.995Z,6.33
2022-09-26T14:22:54.742Z,6.37
2022-09-26T14:25:40.501Z,8.10
2022-09-26T14:28:31.965Z,5.00
2022-09-26T14:31:18.536Z,7.97
2022-09-26T14:33:46.652Z,6.57
2022-09-26T14:36:18.244Z,12.53
2022-09-26T14:38:50.363Z,7.97
2022-09-26T14:41:18.727Z,7.17
2022-09-26T14:43:46.504Z,6.60
2022-09-26T14:46:23.090Z,7.90
2022-09-26T14:48:57.144Z,8.73
2022-09-26T14:51:26.785Z,6.90
2022-09-26T14:53:57.075Z,7.30
2022-09-26T14:56:37.154Z,9.70
2022-09-26T14:59:23.073Z,8.73
2022-09-26T15:01:50.256Z,9.57
2022-09-26T15:04:24.640Z,9.57
2022-09-26T15:06:53.053Z,10.00
2022-09-26T15:09:33.827Z,8.00
2022-09-26T15:12:03.062Z,8.70
2022-09-26T15:14:43.396Z,7.53
2022-09-26T15:17:17.400Z,9.63
2022-09-26T15:19:49.422Z,8.63
2022-09-26T15:22:18.937Z,8.83
2022-09-26T15:24:46.263Z,11.03
2022-09-26T15:27:27.331Z,10.57
2022-09-26T15:29:55.852Z,8.07
2022-09-26T15:32:27.508Z,10.33
2022-09-26T15:34:55.286Z,10.43
2022-09-26T15:37:30.015Z,10.53
2022-09-26T15:39:57.442Z,10.03
2022-09-26T15:42:47.491Z,8.63
2022-09-26T15:45:30.597Z,10.00
2022-09-26T15:47:59.066Z,8.87
2022-09-26T15:50:29.242Z,11.23
2022-09-26T15:53:03.097Z,7.93
2022-09-26T15:55:33.950Z,9.77
2022-09-26T15:58:02.971Z,10.00
2022-09-26T16:00:35.016Z,8.53
2022-09-26T16:03:37.944Z,7.60
2022-09-26T16:06:28.453Z,11.20
2022-09-26T16:09:01.451Z,7.13
2022-09-26T16:11:28.768Z,9.27
2022-09-26T16:13:56.684Z,10.23
2022-09-26T16:16:32.042Z,5.70
2022-09-26T16:19:04.157Z,9.25
2022-09-26T16:21:33.961Z,7.30
2022-09-26T16:24:02.328Z,9.77
2022-09-26T16:26:40.435Z,10.40
2022-09-26T16:29:08.786Z,9.10
2022-09-26T16:31:46.755Z,10.00
2022-09-26T16:34:20.046Z,9.90
2022-09-26T16:36:47.514Z,6.70
2022-09-26T16:39:20.987Z,7.17
2022-09-26T16:42:01.654Z,9.70
2022-09-26T16:44:34.892Z,9.07
2022-09-26T16:47:05.675Z,7.73
2022-09-26T16:49:47.115Z,8.83
2022-09-26T16:52:22.485Z,10.20
2022-09-26T16:54:49.745Z,8.43
2022-09-26T16:57:22.412Z,7.53
2022-09-26T16:59:49.888Z,7.77
2022-09-26T17:02:17.173Z,6.50
2022-09-26T17:04:44.465Z,6.57
2022-09-26T17:07:12.926Z,6.80
2022-09-26T17:09:42.364Z,4.83
2022-09-26T17:12:18.092Z,8.17
2022-09-26T17:14:48.097Z,8.17
2022-09-26T17:17:16.283Z,6.47
2022-09-26T17:19:44.488Z,7.13
2022-09-26T17:22:15.947Z,8.03
2022-09-26T17:24:43.139Z,7.97
2022-09-26T17:27:18.055Z,5.90
2022-09-26T17:29:48.633Z,7.27
2022-09-26T17:32:29.502Z,6.77
2022-09-26T17:34:59.453Z,7.93
2022-09-26T17:37:27.243Z,7.03
2022-09-26T17:39:55.295Z,8.23
2022-09-26T17:42:23.104Z,7.20
2022-09-26T17:44:51.004Z,6.77
2022-09-26T17:47:19.566Z,8.40
2022-09-26T17:49:56.313Z,6.30
2022-09-26T17:52:31.225Z,7.77
2022-09-26T17:55:04.345Z,6.23
2022-09-26T17:57:34.505Z,6.60
2022-09-26T18:00:15.429Z,6.57
2022-09-26T18:02:55.305Z,5.83
2022-09-26T18:05:25.312Z,8.77
2022-09-26T18:07:53.907Z,7.40
2022-09-26T18:10:22.888Z,7.10
2022-09-26T18:12:55.423Z,9.10
2022-09-26T18:15:22.660Z,7.07
2022-09-26T18:17:50.674Z,8.73
2022-09-26T18:20:22.882Z,7.07
2022-09-26T18:22:51.762Z,8.13
2022-09-26T18:25:21.611Z,9.37
2022-09-26T18:27:53.352Z,5.47
2022-09-26T18:30:21.193Z,7.13
2022-09-26T18:32:51.140Z,6.97
2022-09-26T18:35:19.815Z,5.80
2022-09-26T18:37:46.923Z,7.13
2022-09-26T18:40:15.268Z,7.23
2022-09-26T18:42:44.480Z,6.23
2022-09-26T18:45:14.358Z,7.17
2022-09-26T18:47:43.129Z,8.43
2022-09-26T18:50:19.032Z,6.70
2022-09-26T18:52:46.193Z,6.27
2022-09-26T18:55:37.503Z,5.67
2022-09-26T18:58:23.391Z,8.43
2022-09-26T19:01:01.808Z,5.60
2022-09-26T19:03:30.279Z,6.67
2022-09-26T19:06:01.286Z,7.23
2022-09-26T19:08:33.564Z,6.07
2022-09-26T19:11:03.815Z,7.67
2022-09-26T19:13:32.110Z,10.17
2022-09-26T19:15:59.303Z,7.63
2022-09-26T19:18:26.402Z,8.43
2022-09-26T19:20:53.931Z,9.60
2022-09-26T19:23:21.964Z,8.17
2022-09-26T19:25:49.193Z,7.73
2022-09-26T19:28:22.134Z,9.40
2022-09-26T19:30:49.574Z,8.33
2022-09-26T19:33:16.745Z,11.57
2022-09-26T19:35:44.125Z,9.60
2022-09-26T19:38:14.053Z,9.37
2022-09-26T19:40:46.234Z,8.57
2022-09-26T19:43:16.621Z,9.93
2022-09-26T19:45:44.208Z,9.17
2022-09-26T19:48:15.459Z,8.57
2022-09-26T19:50:43.816Z,8.80
2022-09-26T19:53:13.910Z,10.93
2022-09-26T19:55:41.064Z,8.57
2022-09-26T19:58:12.972Z,8.13
2022-09-26T20:00:44.627Z,9.63
2022-09-26T20:03:22.146Z,11.60
2022-09-26T20:05:50.007Z,9.23
2022-09-26T20:08:19.354Z,10.37
2022-09-26T20:10:46.570Z,9.13
2022-09-26T20:13:13.734Z,8.83
2022-09-26T20:15:40.890Z,11.77
2022-09-26T20:18:08.556Z,10.60
2022-09-26T20:20:38.137Z,12.77
2022-09-26T20:23:06.156Z,11.10
2022-09-26T20:25:33.981Z,10.80
2022-09-26T20:28:01.187Z,11.17
2022-09-26T20:30:47.291Z,12.63
2022-09-26T20:33:14.413Z,8.50
2022-09-26T20:35:47.728Z,9.20
2022-09-26T20:38:38.116Z,10.70
2022-09-26T20:41:13.165Z,9.87
2022-09-26T20:43:41.181Z,11.20
2022-09-26T20:46:09.779Z,9.53
2022-09-26T20:48:37.831Z,10.83
2022-09-26T20:51:05.747Z,11.10
2022-09-26T20:53:32.869Z,10.13
2022-09-26T20:55:59.988Z,11.33
2022-09-26T20:58:27.164Z,13.40
2022-09-26T21:00:54.253Z,10.50
2022-09-26T21:03:25.187Z,13.17
2022-09-26T21:05:52.527Z,10.73
2022-09-26T21:08:25.816Z,10.73
2022-09-26T21:10:53.167Z,9.80
2022-09-26T21:13:20.259Z,9.23
2022-09-26T21:15:47.469Z,8.47
2022-09-26T21:18:41.116Z,12.27
2022-09-26T21:21:14.339Z,8.47
2022-09-26T21:23:42.718Z,8.23
2022-09-26T21:26:18.109Z,9.27
2022-09-26T21:28:45.301Z,10.83
2022-09-26T21:31:19.893Z,8.10
2022-09-26T21:33:47.221Z,9.23
2022-09-26T21:36:14.532Z,7.50
2022-09-26T21:38:41.712Z,10.10
2022-09-26T21:41:09.587Z,9.10
2022-09-26T21:43:39.401Z,8.53
2022-09-26T21:46:06.869Z,7.80
2022-09-26T21:48:34.135Z,7.63
2022-09-26T21:51:03.517Z,9.10
2022-09-26T21:53:34.262Z,8.40
2022-09-26T21:56:07.298Z,8.53
2022-09-26T21:58:36.636Z,7.60
2022-09-26T22:01:03.849Z,9.40
2022-09-26T22:03:30.959Z,9.37
2022-09-26T22:05:58.079Z,7.93
2022-09-26T22:08:25.157Z,8.03
2022-09-26T22:10:53.766Z,8.27
2022-09-26T22:13:20.883Z,7.57
2022-09-26T22:15:48.797Z,7.93
2022-09-26T22:18:16.012Z,7.53
2022-09-26T22:20:43.174Z,9.47
2022-09-26T22:23:11.438Z,8.37
2022-09-26T22:25:42.688Z,8.33
2022-09-26T22:28:10.074Z,8.07
2022-09-26T22:30:39.449Z,11.60
2022-09-26T22:33:06.606Z,7.37
2022-09-26T22:35:33.703Z,8.20
2022-09-26T22:38:00.860Z,9.27
2022-09-26T22:40:28.118Z,6.50
2022-09-26T22:42:55.264Z,6.87
2022-09-26T22:45:22.363Z,7.50
2022-09-26T22:47:49.464Z,8.33
2022-09-26T22:50:16.684Z,6.43
2022-09-26T22:52:43.857Z,6.23
2022-09-26T22:55:10.989Z,6.43
2022-09-26T22:57:38.132Z,5.93
2022-09-26T23:00:05.487Z,7.37
2022-09-26T23:02:32.634Z,8.00
2022-09-26T23:04:59.794Z,7.43
2022-09-26T23:07:26.907Z,7.73
2022-09-26T23:09:54.061Z,6.80
2022-09-26T23:12:21.162Z,9.97
2022-09-26T23:14:48.256Z,6.63
2022-09-26T23:17:15.606Z,7.87
2022-09-26T23:19:42.838Z,9.60
2022-09-26T23:22:10.033Z,8.90
2022-09-26T23:24:37.134Z,8.67
2022-09-26T23:27:04.362Z,7.37
2022-09-26T23:29:31.470Z,7.67
2022-09-26T23:31:59.008Z,7.30
2022-09-26T23:34:26.087Z,8.57
2022-09-26T23:36:53.217Z,8.33
2022-09-26T23:39:20.311Z,7.30
2022-09-26T23:41:47.445Z,6.50
2022-09-26T23:44:14.635Z,8.23
2022-09-26T23:46:41.950Z,8.17
2022-09-26T23:49:09.052Z,7.83
2022-09-26T23:51:36.167Z,6.37
2022-09-26T23:54:03.246Z,6.53
2022-09-26T23:56:30.394Z,7.43
2022-09-26T23:58:57.593Z,7.63
